Time;durP1;ratioP1;P1;durP2;ratioP2;P2;SDS_P1;SDS_P2;PMS_P1;PMS_P2;Temp;Humidity;BMP_temperature;BMP_pressure;BME280_temperature;BME280_humidity;BME280_pressure;Samples;Min_cycle;Max_cycle;Signal;HPM_P1;HPM_P2
2023/09/07 04:23:43;;;;;;;3.45;3.10;;;;;;;;;;5099212;27;20453;-75
2023/09/07 04:26:10;;;;;;;3.20;2.83;;;;;;;;;;5099578;27;20039;-75
2023/09/07 04:28:35;;;;;;;4.43;2.95;;;;;;;;;;5102653;28;20042;-75
2023/09/07 04:31:02;;;;;;;4.95;4.20;;;;;;;;;;5102220;28;20046;-75
2023/09/07 04:33:30;;;;;;;4.20;3.17;;;;;;;;;;5097513;28;20024;-75
2023/09/07 04:35:55;;;;;;;9.25;5.15;;;;;;;;;;5072034;27;20040;-75
2023/09/07 04:38:21;;;;;;;6.07;3.92;;;;;;;;;;5067174;27;20052;-75
2023/09/07 04:40:46;;;;;;;4.82;3.83;;;;;;;;;;5083539;27;20051;-75
2023/09/07 04:43:12;;;;;;;3.50;3.10;;;;;;;;;;5077333;28;20162;-75
2023/09/07 04:45:46;;;;;;;4.88;4.13;;;;;;;;;;5061522;28;20047;-73
2023/09/07 04:48:12;;;;;;;5.60;4.35;;;;;;;;;;5057443;28;20298;-72
2023/09/07 04:50:39;;;;;;;3.90;3.20;;;;;;;;;;5058745;28;20497;-72
2023/09/07 04:53:04;;;;;;;4.45;3.75;;;;;;;;;;5053522;27;20037;-73
2023/09/07 04:55:29;;;;;;;4.43;3.50;;;;;;;;;;5043211;28;20582;-73
2023/09/07 04:57:55;;;;;;;5.70;4.65;;;;;;;;;;5067014;27;20420;-72
2023/09/07 05:00:20;;;;;;;3.67;3.28;;;;;;;;;;5068440;27;20060;-72
2023/09/07 05:02:47;;;;;;;3.95;3.47;;;;;;;;;;5059152;28;20085;-73
2023/09/07 05:05:12;;;;;;;6.60;5.07;;;;;;;;;;5059111;28;20393;-73
2023/09/07 05:07:37;;;;;;;3.65;3.33;;;;;;;;;;5048691;28;20078;-74
2023/09/07 05:10:03;;;;;;;6.05;4.80;;;;;;;;;;5061453;28;20051;-74
2023/09/07 05:12:29;;;;;;;3.85;3.20;;;;;;;;;;5061581;28;20155;-74
2023/09/07 05:14:54;;;;;;;7.70;4.85;;;;;;;;;;5053944;28;20089;-74
2023/09/07 05:17:20;;;;;;;6.28;5.28;;;;;;;;;;5058622;28;20432;-74
2023/09/07 05:19:45;;;;;;;3.45;3.08;;;;;;;;;;5062814;28;20463;-74
2023/09/07 05:22:11;;;;;;;4.05;3.60;;;;;;;;;;5058083;27;21844;-74
2023/09/07 05:24:38;;;;;;;3.63;3.30;;;;;;;;;;5081929;28;20044;-74
2023/09/07 05:27:05;;;;;;;5.15;3.63;;;;;;;;;;5067125;27;20032;-74
2023/09/07 05:29:30;;;;;;;3.55;3.25;;;;;;;;;;5066529;28;20060;-74
2023/09/07 05:31:55;;;;;;;5.43;4.13;;;;;;;;;;5051140;28;20448;-74
2023/09/07 05:34:21;;;;;;;4.35;3.28;;;;;;;;;;5044663;28;20037;-74
2023/09/07 05:36:48;;;;;;;6.47;3.85;;;;;;;;;;5056376;28;20120;-74
2023/09/07 05:39:13;;;;;;;5.47;4.20;;;;;;;;;;5055127;28;20124;-74
2023/09/07 05:41:39;;;;;;;3.70;3.40;;;;;;;;;;5057968;28;20119;-73
2023/09/07 05:44:04;;;;;;;3.97;3.22;;;;;;;;;;5072997;28;20040;-74
2023/09/07 05:46:29;;;;;;;4.88;4.25;;;;;;;;;;5053089;28;20505;-74
2023/09/07 05:48:55;;;;;;;4.40;3.53;;;;;;;;;;5045926;28;20047;-73
2023/09/07 05:51:20;;;;;;;4.78;3.55;;;;;;;;;;5072440;28;20450;-74
2023/09/07 05:53:46;;;;;;;4.85;4.05;;;;;;;;;;5068152;28;20032;-74
2023/09/07 05:56:11;;;;;;;5.38;4.60;;;;;;;;;;5071585;28;20064;-73
2023/09/07 05:58:36;;;;;;;7.70;5.03;;;;;;;;;;5074227;28;20028;-73
2023/09/07 06:01:02;;;;;;;6.20;4.55;;;;;;;;;;5058318;28;20040;-74
2023/09/07 06:03:27;;;;;;;6.47;4.80;;;;;;;;;;5056426;28;20056;-74
2023/09/07 06:05:53;;;;;;;7.38;5.50;;;;;;;;;;5070345;28;20063;-74
2023/09/07 06:08:18;;;;;;;9.68;5.10;;;;;;;;;;5069771;28;20036;-74
2023/09/07 06:10:44;;;;;;;7.75;5.55;;;;;;;;;;5048006;28;20035;-74
2023/09/07 06:13:09;;;;;;;7.80;5.28;;;;;;;;;;5065094;28;20459;-74
2023/09/07 06:15:35;;;;;;;8.02;4.88;;;;;;;;;;5065715;28;20044;-73
2023/09/07 06:18:00;;;;;;;9.82;6.38;;;;;;;;;;5065086;28;20032;-74
2023/09/07 06:20:25;;;;;;;10.18;5.20;;;;;;;;;;5065114;28;20435;-73
2023/09/07 06:22:51;;;;;;;11.52;6.10;;;;;;;;;;5063223;28;20047;-73
2023/09/07 06:25:16;;;;;;;8.27;5.25;;;;;;;;;;5065850;28;20074;-73
2023/09/07 06:27:42;;;;;;;8.63;5.97;;;;;;;;;;5073134;28;20036;-74
2023/09/07 06:30:08;;;;;;;8.88;6.43;;;;;;;;;;5065829;28;20927;-74
2023/09/07 06:32:33;;;;;;;12.88;6.65;;;;;;;;;;5037214;28;20072;-73
2023/09/07 06:34:59;;;;;;;6.78;5.10;;;;;;;;;;5056018;28;20431;-74
2023/09/07 06:37:24;;;;;;;8.02;4.90;;;;;;;;;;5066629;28;20040;-74
2023/09/07 06:39:51;;;;;;;7.68;5.80;;;;;;;;;;5069245;28;20169;-74
2023/09/07 06:42:16;;;;;;;6.93;5.35;;;;;;;;;;5070167;28;20028;-74
2023/09/07 06:44:42;;;;;;;8.10;5.75;;;;;;;;;;5057306;28;20094;-74
2023/09/07 06:47:08;;;;;;;7.10;5.47;;;;;;;;;;5049573;28;20097;-74
2023/09/07 06:49:34;;;;;;;10.85;5.93;;;;;;;;;;5065229;28;20075;-74
2023/09/07 06:51:59;;;;;;;8.52;6.28;;;;;;;;;;5050167;28;20116;-74
2023/09/07 06:54:25;;;;;;;8.90;5.50;;;;;;;;;;5042695;28;20033;-74
2023/09/07 06:56:50;;;;;;;4.03;3.58;;;;;;;;;;5056631;28;20591;-74
2023/09/07 06:59:16;;;;;;;9.82;6.22;;;;;;;;;;5054652;28;20044;-74
2023/09/07 07:01:41;;;;;;;7.45;5.97;;;;;;;;;;5054271;28;20497;-74
2023/09/07 07:04:08;;;;;;;9.05;5.80;;;;;;;;;;5074109;28;20043;-74
2023/09/07 07:06:33;;;;;;;12.23;6.53;;;;;;;;;;5057166;28;20868;-74
2023/09/07 07:08:59;;;;;;;10.13;6.45;;;;;;;;;;5061886;28;20036;-74
2023/09/07 07:11:24;;;;;;;10.13;7.00;;;;;;;;;;5053201;28;20460;-74
2023/09/07 07:13:49;;;;;;;11.65;7.50;;;;;;;;;;5047578;28;20041;-74
2023/09/07 07:16:16;;;;;;;18.50;7.70;;;;;;;;;;5048097;28;20463;-74
2023/09/07 07:18:42;;;;;;;12.15;7.80;;;;;;;;;;5054039;28;20036;-74
2023/09/07 07:21:08;;;;;;;10.60;7.00;;;;;;;;;;5067383;27;20035;-74
2023/09/07 07:23:34;;;;;;;11.23;6.95;;;;;;;;;;5070844;28;20539;-74
2023/09/07 07:26:00;;;;;;;7.80;6.03;;;;;;;;;;5068586;28;20036;-74
2023/09/07 07:28:25;;;;;;;11.68;7.20;;;;;;;;;;5049084;28;20037;-74
2023/09/07 07:30:52;;;;;;;8.68;6.18;;;;;;;;;;5057440;28;20043;-74
2023/09/07 07:33:17;;;;;;;10.88;6.93;;;;;;;;;;5055258;28;20555;-74
2023/09/07 07:35:43;;;;;;;12.55;7.18;;;;;;;;;;5052596;28;20045;-74
2023/09/07 07:38:08;;;;;;;6.40;5.60;;;;;;;;;;5041590;28;20182;-74
2023/09/07 07:40:34;;;;;;;12.02;6.93;;;;;;;;;;5031519;28;20041;-73
2023/09/07 07:42:59;;;;;;;9.73;6.05;;;;;;;;;;5028249;28;20068;-74
2023/09/07 07:45:25;;;;;;;8.88;6.53;;;;;;;;;;5047434;28;20064;-74
2023/09/07 07:47:51;;;;;;;4.18;3.78;;;;;;;;;;5046711;28;20742;-74
2023/09/07 07:50:17;;;;;;;8.57;5.90;;;;;;;;;;5048801;28;20032;-74
2023/09/07 07:52:43;;;;;;;8.30;6.07;;;;;;;;;;5052495;28;20047;-74
2023/09/07 07:55:10;;;;;;;6.97;5.70;;;;;;;;;;5052593;28;20041;-74
2023/09/07 07:57:35;;;;;;;9.38;7.45;;;;;;;;;;5044208;28;20404;-74
2023/09/07 08:00:03;;;;;;;5.70;4.15;;;;;;;;;;5058074;28;20032;-74
2023/09/07 08:02:29;;;;;;;6.90;5.40;;;;;;;;;;5057196;28;20105;-74
2023/09/07 08:04:54;;;;;;;7.93;6.57;;;;;;;;;;5052652;28;20127;-74
2023/09/07 08:07:20;;;;;;;7.38;5.78;;;;;;;;;;5043476;28;20107;-74
2023/09/07 08:09:45;;;;;;;9.50;6.57;;;;;;;;;;5033898;28;20554;-74
2023/09/07 08:12:10;;;;;;;10.02;6.32;;;;;;;;;;5038928;28;20636;-74
2023/09/07 08:14:36;;;;;;;8.82;6.85;;;;;;;;;;5049442;28;20033;-74
2023/09/07 08:17:02;;;;;;;9.07;6.57;;;;;;;;;;5057543;28;20110;-74
2023/09/07 08:19:29;;;;;;;6.85;5.18;;;;;;;;;;5057460;28;20113;-74
2023/09/07 08:21:54;;;;;;;9.95;6.60;;;;;;;;;;5049012;28;20174;-74
2023/09/07 08:24:20;;;;;;;5.65;4.60;;;;;;;;;;5054635;28;20059;-74
2023/09/07 08:26:45;;;;;;;7.07;5.82;;;;;;;;;;5040538;28;20033;-74
2023/09/07 08:29:11;;;;;;;6.68;5.97;;;;;;;;;;5051106;28;20786;-74
2023/09/07 08:31:40;;;;;;;8.15;5.80;;;;;;;;;;5050637;28;20045;-74
2023/09/07 08:34:09;;;;;;;9.10;6.60;;;;;;;;;;5051022;28;20090;-74
2023/09/07 08:36:34;;;;;;;6.05;5.45;;;;;;;;;;5047033;28;20524;-74
2023/09/07 08:39:05;;;;;;;5.25;4.75;;;;;;;;;;5043628;28;20044;-74
2023/09/07 08:41:32;;;;;;;7.85;5.45;;;;;;;;;;5049632;28;20042;-74
2023/09/07 08:44:00;;;;;;;6.95;5.45;;;;;;;;;;5051019;28;20071;-74
2023/09/07 08:46:26;;;;;;;6.40;5.80;;;;;;;;;;5052230;28;20070;-74
2023/09/07 08:48:55;;;;;;;9.00;5.90;;;;;;;;;;5052482;28;20093;-74
2023/09/07 08:51:20;;;;;;;6.43;4.60;;;;;;;;;;5045464;28;20032;-74
2023/09/07 08:53:46;;;;;;;7.05;5.97;;;;;;;;;;5037659;28;20078;-74
2023/09/07 08:56:16;;;;;;;8.93;6.28;;;;;;;;;;5052093;28;20052;-74
2023/09/07 08:58:44;;;;;;;5.70;5.10;;;;;;;;;;5034841;28;20055;-74
2023/09/07 09:01:10;;;;;;;7.18;5.88;;;;;;;;;;5053734;28;20048;-74
2023/09/07 09:03:36;;;;;;;6.57;5.57;;;;;;;;;;5053021;28;20101;-74
2023/09/07 09:06:03;;;;;;;7.03;4.88;;;;;;;;;;5051093;28;20660;-74
2023/09/07 09:08:28;;;;;;;6.13;5.53;;;;;;;;;;5024397;28;20057;-74
2023/09/07 09:11:03;;;;;;;5.35;4.85;;;;;;;;;;5030497;28;20123;-74
2023/09/07 09:13:30;;;;;;;7.80;5.32;;;;;;;;;;5050371;28;20413;-74
2023/09/07 09:15:55;;;;;;;8.48;5.65;;;;;;;;;;5049896;28;20041;-74
2023/09/07 09:18:21;;;;;;;6.53;5.80;;;;;;;;;;5046286;28;20047;-74
2023/09/07 09:20:46;;;;;;;5.35;4.07;;;;;;;;;;5028782;28;20040;-74
2023/09/07 09:23:13;;;;;;;6.15;5.50;;;;;;;;;;5053650;28;20145;-74
2023/09/07 09:25:40;;;;;;;5.93;5.32;;;;;;;;;;5049634;28;20041;-75
2023/09/07 09:28:06;;;;;;;8.07;5.28;;;;;;;;;;5045581;28;20039;-74
2023/09/07 09:30:31;;;;;;;6.88;5.25;;;;;;;;;;5056055;28;20041;-74
2023/09/07 09:32:58;;;;;;;7.82;5.25;;;;;;;;;;5055113;28;20540;-74
2023/09/07 09:35:24;;;;;;;9.07;5.63;;;;;;;;;;5024393;28;20429;-74
2023/09/07 09:37:49;;;;;;;7.72;5.60;;;;;;;;;;5055305;28;20035;-74
2023/09/07 09:40:16;;;;;;;7.18;5.50;;;;;;;;;;5030246;28;20071;-74
2023/09/07 09:42:43;;;;;;;4.72;4.20;;;;;;;;;;5048493;28;20048;-74
2023/09/07 09:45:10;;;;;;;5.47;4.95;;;;;;;;;;5034509;28;20040;-74
2023/09/07 09:47:41;;;;;;;5.57;5.03;;;;;;;;;;5061137;28;20044;-74
2023/09/07 09:50:09;;;;;;;5.60;5.10;;;;;;;;;;5073741;28;20036;-75
2023/09/07 09:52:36;;;;;;;7.55;5.53;;;;;;;;;;5063839;28;20074;-74
2023/09/07 09:55:07;;;;;;;6.57;5.47;;;;;;;;;;5062806;28;20211;-75
2023/09/07 09:57:34;;;;;;;4.90;4.10;;;;;;;;;;5056624;28;20033;-74
2023/09/07 10:00:07;;;;;;;5.35;4.88;;;;;;;;;;5044830;28;20515;-74
2023/09/07 10:02:37;;;;;;;6.60;4.93;;;;;;;;;;5029024;28;20121;-74
2023/09/07 10:05:06;;;;;;;;;;;;;;;;;;5055800;28;20051;-74
2023/09/07 10:07:47;;;;;;;5.65;4.28;;;;;;;;;;5055223;28;19912;-74
2023/09/07 10:10:14;;;;;;;5.60;4.60;;;;;;;;;;5052923;28;21056;-75
2023/09/07 10:13:00;;;;;;;5.88;5.00;;;;;;;;;;5042803;28;20042;-74
2023/09/07 10:15:27;;;;;;;7.78;5.25;;;;;;;;;;5052076;28;20563;-74
2023/09/07 10:18:15;;;;;;;6.78;5.22;;;;;;;;;;5053057;28;20110;-74
2023/09/07 10:20:53;;;;;;;6.22;4.93;;;;;;;;;;5054152;28;20036;-74
2023/09/07 10:23:19;;;;;;;5.93;5.32;;;;;;;;;;5008539;28;20053;-74
2023/09/07 10:25:49;;;;;;;6.63;5.40;;;;;;;;;;5055256;28;20374;-75
2023/09/07 10:28:19;;;;;;;5.72;5.10;;;;;;;;;;5033719;28;20060;-75
2023/09/07 10:30:45;;;;;;;7.33;5.37;;;;;;;;;;5051670;28;20106;-74
2023/09/07 10:33:20;;;;;;;4.28;3.88;;;;;;;;;;5053721;28;20269;-74
2023/09/07 10:35:46;;;;;;;6.95;4.88;;;;;;;;;;5040479;28;20034;-74
2023/09/07 10:38:14;;;;;;;5.50;5.00;;;;;;;;;;5055191;28;20059;-75
2023/09/07 10:40:43;;;;;;;6.22;5.15;;;;;;;;;;5051033;28;20396;-75
2023/09/07 10:43:09;;;;;;;5.90;5.38;;;;;;;;;;5053134;28;20048;-75
2023/09/07 10:45:34;;;;;;;5.78;4.32;;;;;;;;;;5054462;28;20036;-75
2023/09/07 10:48:01;;;;;;;4.35;4.00;;;;;;;;;;5048320;28;20611;-75
2023/09/07 10:50:27;;;;;;;4.60;4.18;;;;;;;;;;5051451;28;20071;-75
2023/09/07 10:52:53;;;;;;;5.10;4.47;;;;;;;;;;5055046;28;20064;-75
2023/09/07 10:55:19;;;;;;;5.10;4.13;;;;;;;;;;5056173;28;20067;-75
2023/09/07 10:57:45;;;;;;;4.88;4.38;;;;;;;;;;5054421;28;20513;-74
2023/09/07 11:00:13;;;;;;;5.63;4.32;;;;;;;;;;5040836;28;20029;-75
2023/09/07 11:02:39;;;;;;;4.65;4.13;;;;;;;;;;5026342;28;20052;-75
2023/09/07 11:05:05;;;;;;;6.63;4.22;;;;;;;;;;5054083;28;20039;-75
2023/09/07 11:07:31;;;;;;;4.93;4.20;;;;;;;;;;5049757;28;20123;-74
2023/09/07 11:09:57;;;;;;;6.47;4.20;;;;;;;;;;5048381;28;20624;-73
2023/09/07 11:12:22;;;;;;;5.05;4.03;;;;;;;;;;5052246;28;20032;-73
2023/09/07 11:14:48;;;;;;;5.47;4.28;;;;;;;;;;5050705;28;20109;-73
2023/09/07 11:17:13;;;;;;;4.70;4.05;;;;;;;;;;5042872;28;20115;-73
2023/09/07 11:19:39;;;;;;;5.35;3.90;;;;;;;;;;5052289;28;20378;-73
2023/09/07 11:22:04;;;;;;;4.95;4.45;;;;;;;;;;5050875;28;20062;-73
2023/09/07 11:24:32;;;;;;;4.93;4.28;;;;;;;;;;5053424;28;20139;-74
2023/09/07 11:26:57;;;;;;;4.68;4.28;;;;;;;;;;5053185;28;20028;-74
2023/09/07 11:29:23;;;;;;;5.00;4.50;;;;;;;;;;5052820;28;20511;-74
2023/09/07 11:31:48;;;;;;;4.97;4.30;;;;;;;;;;5042253;28;20100;-73
2023/09/07 11:34:15;;;;;;;4.63;4.22;;;;;;;;;;5053545;28;20040;-73
2023/09/07 11:36:41;;;;;;;5.35;4.03;;;;;;;;;;5053430;28;20109;-73
2023/09/07 11:39:12;;;;;;;4.82;4.32;;;;;;;;;;5053227;28;20032;-74
2023/09/07 11:41:42;;;;;;;4.40;4.00;;;;;;;;;;5052257;28;20495;-73
2023/09/07 11:44:07;;;;;;;;;;;;;;;;;;5045277;28;20036;-73
2023/09/07 11:46:32;;;;;;;5.53;4.32;;;;;;;;;;5052458;28;19923;-74
2023/09/07 11:48:58;;;;;;;5.43;4.38;;;;;;;;;;5053836;28;20408;-74
2023/09/07 11:51:24;;;;;;;4.65;4.25;;;;;;;;;;5053997;28;20408;-74
2023/09/07 11:53:49;;;;;;;5.30;4.32;;;;;;;;;;5054182;28;20052;-74
2023/09/07 11:56:15;;;;;;;4.57;4.18;;;;;;;;;;5052992;28;20101;-74
2023/09/07 11:58:42;;;;;;;4.85;4.45;;;;;;;;;;5041574;28;20048;-74
2023/09/07 12:01:08;;;;;;;5.82;4.15;;;;;;;;;;5052875;28;20059;-73
2023/09/07 12:03:34;;;;;;;5.40;4.07;;;;;;;;;;5051885;28;20041;-74
2023/09/07 12:06:00;;;;;;;5.05;4.22;;;;;;;;;;5052511;28;20044;-74
2023/09/07 12:08:25;;;;;;;5.50;4.10;;;;;;;;;;5052179;28;20094;-74
2023/09/07 12:10:50;;;;;;;5.20;3.95;;;;;;;;;;5052530;28;20131;-73
2023/09/07 12:13:16;;;;;;;5.03;4.30;;;;;;;;;;5016506;28;20560;-74
2023/09/07 12:15:41;;;;;;;6.72;4.63;;;;;;;;;;5051155;28;20133;-74
2023/09/07 12:18:07;;;;;;;4.90;4.40;;;;;;;;;;5053283;28;20707;-74
2023/09/07 12:20:34;;;;;;;5.47;4.28;;;;;;;;;;5058775;28;20028;-73
2023/09/07 12:23:00;;;;;;;5.20;3.72;;;;;;;;;;5056542;28;20032;-73
2023/09/07 12:25:26;;;;;;;4.65;4.18;;;;;;;;;;5058083;28;20043;-74
2023/09/07 12:27:51;;;;;;;4.38;3.88;;;;;;;;;;5044463;28;20040;-73
2023/09/07 12:30:21;;;;;;;4.90;4.43;;;;;;;;;;5038014;28;20037;-74
2023/09/07 12:32:47;;;;;;;6.45;4.80;;;;;;;;;;5052169;28;20083;-74
2023/09/07 12:35:13;;;;;;;6.00;3.83;;;;;;;;;;5030867;28;20505;-74
2023/09/07 12:37:38;;;;;;;5.05;4.05;;;;;;;;;;5050631;28;20040;-74
2023/09/07 12:40:12;;;;;;;7.80;4.60;;;;;;;;;;5056913;28;20515;-74
2023/09/07 12:42:44;;;;;;;8.75;4.75;;;;;;;;;;5021741;28;20059;-74
2023/09/07 12:45:14;;;;;;;4.90;4.40;;;;;;;;;;5050077;28;20029;-74
2023/09/07 12:47:40;;;;;;;8.20;4.45;;;;;;;;;;5059485;28;20629;-74
2023/09/07 12:50:06;;;;;;;5.15;4.32;;;;;;;;;;5055235;28;20107;-73
2023/09/07 12:52:35;;;;;;;4.47;4.07;;;;;;;;;;5065834;28;20058;-74
2023/09/07 12:55:01;;;;;;;4.60;4.05;;;;;;;;;;5044212;28;20041;-74
2023/09/07 12:57:26;;;;;;;5.30;4.75;;;;;;;;;;5054017;28;20036;-74
2023/09/07 12:59:52;;;;;;;6.75;4.60;;;;;;;;;;5055122;28;20489;-74
2023/09/07 13:02:17;;;;;;;5.20;4.20;;;;;;;;;;5036659;28;20053;-74
2023/09/07 13:04:42;;;;;;;6.18;4.60;;;;;;;;;;5055627;28;20388;-74
2023/09/07 13:07:08;;;;;;;6.30;4.22;;;;;;;;;;5055124;28;20047;-73
2023/09/07 13:09:34;;;;;;;6.18;4.47;;;;;;;;;;5046120;28;20045;-73
2023/09/07 13:11:59;;;;;;;5.45;4.38;;;;;;;;;;5053760;28;20754;-74
2023/09/07 13:14:25;;;;;;;6.70;4.70;;;;;;;;;;5054514;28;20108;-74
2023/09/07 13:16:51;;;;;;;5.88;4.47;;;;;;;;;;5042539;28;20064;-74
2023/09/07 13:19:16;;;;;;;4.80;4.40;;;;;;;;;;5048411;28;20036;-75
2023/09/07 13:21:42;;;;;;;6.78;4.38;;;;;;;;;;5040114;28;20051;-75
2023/09/07 13:24:07;;;;;;;6.93;4.60;;;;;;;;;;5031039;28;20487;-74
2023/09/07 13:26:32;;;;;;;4.82;4.32;;;;;;;;;;5034075;28;20053;-74
2023/09/07 13:28:58;;;;;;;8.43;4.38;;;;;;;;;;5027044;28;20055;-74
2023/09/07 13:31:23;;;;;;;8.23;4.63;;;;;;;;;;5026019;28;20505;-74
2023/09/07 13:33:49;;;;;;;5.75;4.40;;;;;;;;;;5027918;28;20159;-74
2023/09/07 13:36:14;;;;;;;4.95;4.10;;;;;;;;;;5052056;28;20043;-74
2023/09/07 13:38:41;;;;;;;5.95;4.50;;;;;;;;;;5058092;27;20036;-74
2023/09/07 13:41:06;;;;;;;6.47;4.20;;;;;;;;;;5057933;28;20035;-73
2023/09/07 13:43:32;;;;;;;4.70;4.10;;;;;;;;;;5053046;28;20036;-74
2023/09/07 13:45:57;;;;;;;4.28;3.88;;;;;;;;;;5047476;28;20571;-74
2023/09/07 13:48:22;;;;;;;4.10;3.78;;;;;;;;;;5062573;28;20069;-74
2023/09/07 13:50:48;;;;;;;4.47;3.90;;;;;;;;;;5041583;28;20041;-74
2023/09/07 13:53:14;;;;;;;4.68;4.00;;;;;;;;;;5053490;28;20444;-74
2023/09/07 13:55:41;;;;;;;7.07;4.07;;;;;;;;;;5033812;28;20048;-74
2023/09/07 13:58:07;;;;;;;4.20;3.63;;;;;;;;;;5048788;28;20052;-74
2023/09/07 14:00:34;;;;;;;5.18;3.70;;;;;;;;;;5056787;28;20125;-74
2023/09/07 14:02:59;;;;;;;5.88;3.92;;;;;;;;;;5041053;28;20047;-74
2023/09/07 14:05:24;;;;;;;5.70;3.85;;;;;;;;;;5032694;28;20127;-74
2023/09/07 14:07:50;;;;;;;5.93;3.83;;;;;;;;;;5043209;28;20067;-74
2023/09/07 14:10:15;;;;;;;4.22;3.63;;;;;;;;;;5024557;28;20078;-74
2023/09/07 14:12:42;;;;;;;5.93;3.63;;;;;;;;;;5047970;28;20556;-74
2023/09/07 14:15:08;;;;;;;4.43;4.00;;;;;;;;;;5055533;28;20097;-73
2023/09/07 14:17:34;;;;;;;4.10;3.65;;;;;;;;;;5042020;28;20041;-73
2023/09/07 14:19:59;;;;;;;4.72;4.05;;;;;;;;;;5039504;28;20111;-73
2023/09/07 14:22:24;;;;;;;4.68;4.25;;;;;;;;;;5053362;28;20040;-74
2023/09/07 14:24:50;;;;;;;5.90;3.80;;;;;;;;;;5041067;28;20036;-74
2023/09/07 14:27:15;;;;;;;5.72;3.70;;;;;;;;;;5047593;28;20135;-74
2023/09/07 14:29:40;;;;;;;6.10;4.03;;;;;;;;;;5050946;28;20074;-74
2023/09/07 14:32:06;;;;;;;5.93;4.00;;;;;;;;;;5054616;28;20574;-74
2023/09/07 14:34:31;;;;;;;4.25;3.75;;;;;;;;;;5041636;28;20044;-74
2023/09/07 14:36:57;;;;;;;5.95;4.03;;;;;;;;;;5040570;28;21261;-74
2023/09/07 14:39:25;;;;;;;4.50;3.92;;;;;;;;;;5053408;28;20036;-74
2023/09/07 14:41:53;;;;;;;5.65;3.70;;;;;;;;;;5054331;28;20040;-74
2023/09/07 14:44:18;;;;;;;4.93;3.58;;;;;;;;;;5051157;28;20060;-74
2023/09/07 14:46:44;;;;;;;5.55;4.03;;;;;;;;;;5038794;28;20088;-74
2023/09/07 14:49:09;;;;;;;5.00;4.40;;;;;;;;;;5039614;28;20099;-74
2023/09/07 14:51:35;;;;;;;6.13;4.10;;;;;;;;;;5051314;28;20037;-74
2023/09/07 14:54:00;;;;;;;5.07;3.92;;;;;;;;;;5039311;28;20094;-74
2023/09/07 14:56:26;;;;;;;5.88;3.78;;;;;;;;;;5044082;28;20032;-74
2023/09/07 14:58:51;;;;;;;4.32;3.80;;;;;;;;;;5053358;28;20044;-73
2023/09/07 15:01:17;;;;;;;5.70;4.00;;;;;;;;;;5022366;28;20043;-72
2023/09/07 15:03:43;;;;;;;3.90;3.53;;;;;;;;;;5036647;28;20048;-74
2023/09/07 15:06:11;;;;;;;5.05;3.80;;;;;;;;;;5066719;28;20040;-74
2023/09/07 15:08:37;;;;;;;4.72;4.22;;;;;;;;;;5042070;28;20068;-74
2023/09/07 15:11:03;;;;;;;5.65;3.85;;;;;;;;;;5029108;28;20036;-74
2023/09/07 15:13:29;;;;;;;6.00;3.75;;;;;;;;;;5002799;28;20041;-74
2023/09/07 15:15:54;;;;;;;5.72;3.80;;;;;;;;;;5004238;28;20102;-74
2023/09/07 15:18:20;;;;;;;4.13;3.72;;;;;;;;;;5013828;28;20124;-74
2023/09/07 15:20:45;;;;;;;4.13;3.75;;;;;;;;;;5014518;28;20099;-74
2023/09/07 15:23:10;;;;;;;4.70;3.63;;;;;;;;;;5013779;28;20044;-74
2023/09/07 15:25:36;;;;;;;5.10;3.78;;;;;;;;;;5031253;28;20037;-74
2023/09/07 15:28:01;;;;;;;4.43;3.95;;;;;;;;;;5013880;28;20045;-74
2023/09/07 15:30:27;;;;;;;5.50;3.85;;;;;;;;;;5020421;28;20042;-73
2023/09/07 15:32:52;;;;;;;4.38;3.63;;;;;;;;;;5032195;28;20037;-74
2023/09/07 15:35:18;;;;;;;5.63;3.70;;;;;;;;;;5026423;28;20033;-74
2023/09/07 15:37:45;;;;;;;4.40;3.20;;;;;;;;;;5017139;28;20457;-74
2023/09/07 15:40:12;;;;;;;5.63;3.80;;;;;;;;;;5000005;28;20624;-73
2023/09/07 15:42:38;;;;;;;5.68;3.90;;;;;;;;;;5018815;28;20047;-73
2023/09/07 15:45:04;;;;;;;3.92;3.45;;;;;;;;;;5008087;28;20048;-74
2023/09/07 15:47:31;;;;;;;4.15;3.35;;;;;;;;;;5012806;28;20139;-74
2023/09/07 15:49:57;;;;;;;5.93;3.70;;;;;;;;;;5017766;28;20045;-74
2023/09/07 15:52:23;;;;;;;6.20;3.70;;;;;;;;;;5021216;28;20036;-73
2023/09/07 15:54:48;;;;;;;3.95;3.55;;;;;;;;;;5024942;28;20523;-73
2023/09/07 15:57:14;;;;;;;3.88;3.47;;;;;;;;;;5013462;28;20099;-73
2023/09/07 15:59:39;;;;;;;5.50;3.80;;;;;;;;;;5009680;28;20049;-73
2023/09/07 16:02:05;;;;;;;4.57;3.53;;;;;;;;;;5013878;28;20040;-73
2023/09/07 16:04:31;;;;;;;5.47;3.65;;;;;;;;;;5020033;28;20041;-73
2023/09/07 16:06:56;;;;;;;4.18;3.25;;;;;;;;;;5025953;28;20119;-73
2023/09/07 16:09:22;;;;;;;3.90;3.40;;;;;;;;;;5014495;28;20179;-73
2023/09/07 16:11:48;;;;;;;5.28;3.72;;;;;;;;;;5025503;28;20067;-72
2023/09/07 16:14:13;;;;;;;3.83;3.25;;;;;;;;;;5000988;28;20533;-73
2023/09/07 16:16:38;;;;;;;4.07;3.42;;;;;;;;;;5013217;28;20728;-74
2023/09/07 16:19:04;;;;;;;17.92;4.80;;;;;;;;;;4999095;28;20061;-73
2023/09/07 16:21:30;;;;;;;4.68;3.70;;;;;;;;;;5011831;28;20044;-72
2023/09/07 16:23:56;;;;;;;3.97;3.33;;;;;;;;;;5013832;28;20056;-73
2023/09/07 16:26:21;;;;;;;4.63;3.47;;;;;;;;;;5025778;28;20040;-72
2023/09/07 16:28:48;;;;;;;3.67;3.38;;;;;;;;;;5020838;28;20034;-72
2023/09/07 16:31:14;;;;;;;9.60;3.80;;;;;;;;;;5023787;28;20033;-72
2023/09/07 16:33:40;;;;;;;4.18;3.58;;;;;;;;;;4997185;28;20512;-72
2023/09/07 16:36:05;;;;;;;6.20;3.47;;;;;;;;;;5010397;28;20095;-73
2023/09/07 16:38:30;;;;;;;4.18;3.50;;;;;;;;;;5019564;28;20693;-73
2023/09/07 16:40:56;;;;;;;3.65;3.35;;;;;;;;;;5014256;28;20051;-73
2023/09/07 16:43:24;;;;;;;9.50;3.67;;;;;;;;;;5010022;28;20048;-72
2023/09/07 16:45:58;;;;;;;5.05;3.47;;;;;;;;;;5017799;28;20850;-72
2023/09/07 16:48:23;;;;;;;4.43;3.40;;;;;;;;;;5010166;28;20068;-72
2023/09/07 16:50:48;;;;;;;5.10;3.47;;;;;;;;;;5022615;28;20069;-73
2023/09/07 16:53:14;;;;;;;3.55;3.20;;;;;;;;;;5023209;28;20163;-73
2023/09/07 16:55:39;;;;;;;3.83;3.42;;;;;;;;;;4995950;28;20510;-72
2023/09/07 16:58:04;;;;;;;3.78;3.25;;;;;;;;;;5010238;28;20045;-72
2023/09/07 17:00:30;;;;;;;3.55;3.25;;;;;;;;;;5014602;28;20180;-73
2023/09/07 17:02:55;;;;;;;4.63;3.55;;;;;;;;;;5014432;28;20041;-73
2023/09/07 17:05:21;;;;;;;3.47;3.17;;;;;;;;;;5007382;28;20038;-73
2023/09/07 17:07:46;;;;;;;3.28;2.97;;;;;;;;;;5017975;28;20681;-73
2023/09/07 17:10:11;;;;;;;4.30;3.30;;;;;;;;;;5000500;28;20038;-73
2023/09/07 17:12:37;;;;;;;4.13;3.15;;;;;;;;;;5005822;28;20457;-73
2023/09/07 17:15:04;;;;;;;3.50;3.20;;;;;;;;;;5012597;28;20045;-73
2023/09/07 17:17:29;;;;;;;7.22;3.47;;;;;;;;;;5048147;28;20044;-72
2023/09/07 17:19:54;;;;;;;3.40;3.08;;;;;;;;;;5046634;28;20043;-72
2023/09/07 17:22:20;;;;;;;3.67;2.85;;;;;;;;;;5055407;28;20060;-73
2023/09/07 17:24:45;;;;;;;3.10;2.90;;;;;;;;;;5045343;28;20041;-73
2023/09/07 17:27:11;;;;;;;3.47;3.10;;;;;;;;;;5052847;28;20040;-73
2023/09/07 17:29:36;;;;;;;3.50;3.20;;;;;;;;;;5059960;28;20396;-73
2023/09/07 17:32:02;;;;;;;3.22;2.92;;;;;;;;;;5059986;28;20040;-73
2023/09/07 17:34:28;;;;;;;4.15;3.28;;;;;;;;;;5045021;28;20613;-72
2023/09/07 17:36:53;;;;;;;3.03;2.72;;;;;;;;;;5041063;28;20048;-73
2023/09/07 17:39:19;;;;;;;3.40;3.10;;;;;;;;;;5036405;28;20032;-73
2023/09/07 17:41:44;;;;;;;3.75;3.40;;;;;;;;;;5045930;28;20045;-72
2023/09/07 17:44:10;;;;;;;4.95;3.65;;;;;;;;;;5041273;28;20097;-72
2023/09/07 17:46:38;;;;;;;4.97;3.00;;;;;;;;;;5057321;28;20051;-73
2023/09/07 17:49:04;;;;;;;3.30;3.00;;;;;;;;;;5057441;28;20049;-73
2023/09/07 17:51:31;;;;;;;4.10;3.28;;;;;;;;;;5043698;28;20055;-73
2023/09/07 17:53:56;;;;;;;3.33;3.03;;;;;;;;;;5049214;28;20052;-73
2023/09/07 17:56:22;;;;;;;3.65;3.30;;;;;;;;;;5056094;28;20040;-73
2023/09/07 17:58:47;;;;;;;3.40;3.10;;;;;;;;;;5049127;28;20057;-73
2023/09/07 18:01:18;;;;;;;3.60;3.30;;;;;;;;;;5058641;28;20036;-73
2023/09/07 18:03:44;;;;;;;4.35;3.08;;;;;;;;;;5061368;28;20032;-73
2023/09/07 18:06:10;;;;;;;4.70;3.17;;;;;;;;;;5030590;28;20445;-73
2023/09/07 18:08:36;;;;;;;4.22;2.80;;;;;;;;;;5040840;28;20656;-73
2023/09/07 18:11:03;;;;;;;3.70;3.20;;;;;;;;;;5062006;28;20386;-73
2023/09/07 18:13:29;;;;;;;4.18;3.78;;;;;;;;;;5061886;28;20047;-73
2023/09/07 18:15:56;;;;;;;3.85;3.47;;;;;;;;;;5050912;28;20052;-73
2023/09/07 18:18:22;;;;;;;4.32;3.35;;;;;;;;;;5043354;28;20082;-73
2023/09/07 18:20:47;;;;;;;3.17;2.90;;;;;;;;;;5048638;28;20063;-74
2023/09/07 18:23:17;;;;;;;3.78;3.20;;;;;;;;;;5053604;28;20522;-73
2023/09/07 18:25:43;;;;;;;4.15;3.30;;;;;;;;;;5056945;28;20710;-72
2023/09/07 18:28:09;;;;;;;3.30;3.00;;;;;;;;;;5059675;28;20035;-73
2023/09/07 18:30:35;;;;;;;4.80;3.40;;;;;;;;;;5052874;28;20044;-73
2023/09/07 18:33:03;;;;;;;3.47;2.92;;;;;;;;;;5041371;28;20149;-73
2023/09/07 18:35:31;;;;;;;3.20;2.90;;;;;;;;;;5050437;28;20623;-73
2023/09/07 18:37:58;;;;;;;4.38;3.53;;;;;;;;;;5039076;28;20036;-73
2023/09/07 18:40:23;;;;;;;4.45;3.20;;;;;;;;;;5034188;28;20119;-73
2023/09/07 18:42:50;;;;;;;3.22;2.83;;;;;;;;;;5053431;28;20119;-73
2023/09/07 18:45:15;;;;;;;4.03;3.20;;;;;;;;;;5048866;28;20040;-73
2023/09/07 18:47:41;;;;;;;4.45;3.08;;;;;;;;;;5043585;28;20052;-73
2023/09/07 18:50:07;;;;;;;3.38;2.92;;;;;;;;;;5051484;28;20029;-73
2023/09/07 18:52:36;;;;;;;3.85;3.20;;;;;;;;;;5021810;28;20045;-72
2023/09/07 18:55:02;;;;;;;4.63;2.90;;;;;;;;;;5053041;28;20179;-73
2023/09/07 18:57:28;;;;;;;4.97;3.22;;;;;;;;;;5052850;28;20719;-73
2023/09/07 18:59:53;;;;;;;3.70;3.10;;;;;;;;;;5053518;28;20047;-72